createdAt,value
2019-02-02T00:03:48.115Z,18.47
2019-02-02T00:07:51.577Z,18.50
2019-02-02T00:11:55.043Z,19.87
2019-02-02T00:15:58.492Z,19.00
2019-02-02T00:20:01.954Z,20.83
2019-02-02T00:24:05.417Z,22.67
2019-02-02T00:28:08.877Z,20.77
2019-02-02T00:32:12.341Z,21.47
2019-02-02T00:36:15.797Z,19.80
2019-02-02T00:40:19.262Z,19.50
2019-02-02T00:44:22.721Z,21.23
2019-02-02T00:48:26.203Z,19.47
2019-02-02T00:52:29.669Z,19.80
2019-02-02T00:56:33.121Z,18.67
2019-02-02T01:00:36.583Z,19.60
2019-02-02T01:04:40.053Z,18.03
2019-02-02T01:08:43.516Z,18.80
2019-02-02T01:12:46.984Z,19.13
2019-02-02T01:16:50.437Z,19.63
2019-02-02T01:20:53.900Z,20.40
2019-02-02T01:24:57.369Z,20.83
2019-02-02T01:29:00.828Z,21.30
2019-02-02T01:33:04.290Z,21.07
2019-02-02T01:37:07.743Z,20.10
2019-02-02T01:41:11.209Z,20.70
2019-02-02T01:45:14.674Z,20.13
2019-02-02T01:49:18.140Z,21.20
2019-02-02T01:53:21.621Z,18.60
2019-02-02T01:57:25.073Z,19.40
2019-02-02T02:01:28.536Z,19.47
2019-02-02T02:05:32.002Z,17.60
2019-02-02T02:09:35.467Z,21.77
2019-02-02T02:13:38.922Z,18.63
2019-02-02T02:17:42.393Z,17.97
2019-02-02T02:21:46.825Z,19.50
2019-02-02T02:25:50.285Z,15.40
2019-02-02T02:29:53.753Z,16.57
2019-02-02T02:33:57.211Z,16.70
2019-02-02T02:38:00.673Z,16.23
2019-02-02T02:42:04.138Z,15.73
2019-02-02T02:46:07.610Z,14.47
2019-02-02T02:50:11.079Z,14.27
2019-02-02T02:54:14.541Z,13.40
2019-02-02T02:58:17.995Z,13.97
2019-02-02T03:02:21.499Z,14.93
2019-02-02T03:06:24.929Z,14.90
2019-02-02T03:10:28.391Z,14.40
2019-02-02T03:14:31.854Z,14.27
2019-02-02T03:18:35.320Z,13.73
2019-02-02T03:22:38.782Z,15.00
2019-02-02T03:26:42.249Z,14.87
2019-02-02T03:30:45.722Z,15.23
2019-02-02T03:34:49.172Z,15.03
2019-02-02T03:38:52.641Z,14.23
2019-02-02T03:42:56.100Z,15.73
2019-02-02T03:46:59.572Z,15.47
2019-02-02T03:51:03.025Z,14.73
2019-02-02T03:55:06.486Z,14.70
2019-02-02T03:59:09.953Z,15.03
2019-02-02T04:03:13.418Z,13.77
2019-02-02T04:07:16.884Z,14.77
2019-02-02T04:11:20.331Z,13.87
2019-02-02T04:15:23.790Z,15.07
2019-02-02T04:19:27.253Z,15.10
2019-02-02T04:23:30.721Z,16.33
2019-02-02T04:27:34.184Z,17.03
2019-02-02T04:31:37.640Z,17.33
2019-02-02T04:35:41.106Z,15.47
2019-02-02T04:39:44.576Z,16.17
2019-02-02T04:43:48.036Z,15.17
2019-02-02T04:47:51.503Z,17.73
2019-02-02T04:51:54.958Z,16.77
2019-02-02T04:55:58.423Z,16.90
2019-02-02T05:00:01.893Z,15.73
2019-02-02T05:04:05.359Z,15.87
2019-02-02T05:08:08.824Z,15.53
2019-02-02T05:12:12.273Z,15.70
2019-02-02T05:16:15.743Z,16.07
2019-02-02T05:20:19.195Z,15.93
2019-02-02T05:24:22.661Z,15.93
2019-02-02T05:28:26.410Z,17.27
2019-02-02T05:32:29.861Z,19.03
2019-02-02T05:36:33.328Z,17.10
2019-02-02T05:40:36.798Z,16.97
2019-02-02T05:44:40.259Z,17.40
2019-02-02T05:48:43.715Z,16.63
2019-02-02T05:52:47.189Z,16.50
2019-02-02T05:56:50.637Z,16.77
2019-02-02T06:00:54.674Z,18.77
2019-02-02T06:04:58.140Z,16.93
2019-02-02T06:09:01.601Z,18.07
2019-02-02T06:13:06.148Z,17.47
2019-02-02T06:17:09.586Z,18.07
2019-02-02T06:21:13.057Z,17.93
2019-02-02T06:25:16.518Z,18.13
2019-02-02T06:29:19.975Z,17.33
2019-02-02T06:33:23.431Z,16.57
2019-02-02T06:37:26.905Z,17.00
2019-02-02T06:41:30.370Z,19.53
2019-02-02T06:45:33.941Z,18.93
2019-02-02T06:49:37.360Z,17.33
2019-02-02T06:53:40.824Z,16.93
2019-02-02T06:57:44.292Z,16.47
2019-02-02T07:01:47.755Z,16.17
2019-02-02T07:05:51.206Z,18.33
2019-02-02T07:09:54.676Z,19.73
2019-02-02T07:13:58.133Z,19.40
2019-02-02T07:18:01.598Z,19.97
2019-02-02T07:22:05.060Z,18.17
2019-02-02T07:26:08.520Z,18.77
2019-02-02T07:30:11.991Z,19.10
2019-02-02T07:34:16.525Z,18.83
2019-02-02T07:38:19.994Z,18.60
2019-02-02T07:42:23.482Z,19.60
2019-02-02T07:46:26.934Z,21.63
2019-02-02T07:50:31.382Z,19.63
2019-02-02T07:54:34.840Z,21.23
2019-02-02T07:58:38.293Z,19.53
2019-02-02T08:02:41.763Z,18.17
2019-02-02T08:06:46.286Z,18.57
2019-02-02T08:10:49.866Z,17.93
2019-02-02T08:14:53.336Z,17.77
2019-02-02T08:18:56.797Z,18.40
2019-02-02T08:23:00.264Z,18.17
2019-02-02T08:27:03.723Z,18.67
2019-02-02T08:31:07.189Z,19.30
2019-02-02T08:35:10.657Z,18.30
2019-02-02T08:39:14.114Z,21.23
2019-02-02T08:43:17.577Z,19.97
2019-02-02T08:47:21.031Z,19.20
2019-02-02T08:51:24.492Z,21.70
2019-02-02T08:55:27.957Z,19.03
2019-02-02T08:59:31.417Z,21.57
2019-02-02T09:03:34.937Z,22.93
2019-02-02T09:07:39.415Z,22.70
2019-02-02T09:11:42.880Z,20.77
2019-02-02T09:15:46.336Z,18.83
2019-02-02T09:19:49.800Z,20.40
2019-02-02T09:23:53.245Z,20.20
2019-02-02T09:27:56.721Z,22.30
2019-02-02T09:32:00.184Z,19.50
2019-02-02T09:36:03.649Z,19.50
2019-02-02T09:40:08.083Z,19.93
2019-02-02T09:44:11.538Z,19.40
2019-02-02T09:48:15.010Z,20.27
2019-02-02T09:52:18.472Z,27.93
2019-02-02T09:56:21.941Z,23.23
2019-02-02T10:00:25.409Z,22.57
2019-02-02T10:04:28.864Z,20.83
2019-02-02T10:08:32.328Z,21.77
2019-02-02T10:12:36.869Z,20.70
2019-02-02T10:16:40.335Z,23.50
2019-02-02T10:20:43.808Z,22.67
2019-02-02T10:24:47.263Z,23.40
2019-02-02T10:28:50.731Z,22.47
2019-02-02T10:32:54.195Z,21.33
2019-02-02T10:36:57.660Z,21.60
2019-02-02T10:41:01.126Z,21.67
2019-02-02T10:45:04.573Z,24.03
2019-02-02T10:49:08.039Z,20.97
2019-02-02T10:53:11.500Z,18.40
2019-02-02T10:57:14.971Z,14.90
2019-02-02T11:01:18.453Z,17.13
2019-02-02T11:05:22.025Z,16.63
2019-02-02T11:09:25.599Z,15.63
2019-02-02T11:13:29.058Z,17.50
2019-02-02T11:17:32.675Z,16.23
2019-02-02T11:21:36.076Z,16.67
2019-02-02T11:25:39.802Z,16.57
2019-02-02T11:29:43.330Z,15.43
2019-02-02T11:33:46.836Z,16.23
2019-02-02T11:37:50.302Z,16.60
2019-02-02T11:41:53.765Z,21.67
2019-02-02T11:45:57.223Z,16.27
2019-02-02T11:50:00.764Z,15.10
2019-02-02T11:54:04.224Z,15.07
2019-02-02T11:58:07.692Z,13.97
2019-02-02T12:02:14.515Z,14.83
2019-02-02T12:06:16.319Z,12.83
2019-02-02T12:10:19.781Z,12.53
2019-02-02T12:14:23.252Z,12.63
2019-02-02T12:18:26.717Z,11.07
2019-02-02T12:22:30.178Z,13.50
2019-02-02T12:26:33.647Z,13.37
2019-02-02T12:30:37.108Z,11.87
2019-02-02T12:34:40.579Z,12.40
2019-02-02T12:38:44.040Z,12.17
2019-02-02T12:42:47.489Z,11.93
2019-02-02T12:46:50.949Z,12.03
2019-02-02T12:50:54.408Z,13.27
2019-02-02T12:54:57.871Z,12.33
2019-02-02T12:59:01.342Z,11.73
2019-02-02T13:03:04.795Z,12.23
2019-02-02T13:07:08.252Z,11.23
2019-02-02T13:11:11.719Z,15.67
2019-02-02T13:15:15.186Z,14.77
2019-02-02T13:19:18.646Z,15.43
2019-02-02T13:23:22.106Z,14.27
2019-02-02T13:27:25.611Z,14.93
2019-02-02T13:31:29.026Z,13.83
2019-02-02T13:35:32.485Z,14.07
2019-02-02T13:39:35.960Z,14.73
2019-02-02T13:43:39.416Z,15.33
2019-02-02T13:47:42.892Z,17.77
2019-02-02T13:51:47.319Z,15.00
2019-02-02T13:55:50.790Z,15.20
2019-02-02T13:59:54.312Z,14.00
2019-02-02T14:03:57.771Z,15.50
2019-02-02T14:08:01.241Z,14.83
2019-02-02T14:12:04.703Z,12.40
2019-02-02T14:16:08.172Z,12.00
2019-02-02T14:20:11.626Z,16.37
2019-02-02T14:24:15.102Z,12.07
2019-02-02T14:28:27.988Z,12.70
2019-02-02T14:32:23.745Z,14.60
2019-02-02T14:36:27.212Z,11.20
2019-02-02T14:40:30.674Z,11.93
2019-02-02T14:44:34.149Z,12.10
2019-02-02T14:48:37.603Z,12.77
2019-02-02T14:52:41.070Z,11.87
2019-02-02T14:56:48.017Z,10.40
2019-02-02T15:00:49.688Z,11.00
2019-02-02T15:04:53.157Z,10.37
2019-02-02T15:08:56.618Z,11.10
2019-02-02T15:13:00.091Z,9.83
2019-02-02T15:17:03.540Z,10.37
2019-02-02T15:21:07.600Z,9.17
2019-02-02T15:25:11.035Z,9.73
2019-02-02T15:29:14.496Z,10.07
2019-02-02T15:33:17.963Z,9.60
2019-02-02T15:37:21.420Z,8.13
2019-02-02T15:41:24.870Z,8.37
2019-02-02T15:45:28.340Z,8.60
2019-02-02T15:49:31.803Z,8.43
2019-02-02T15:53:35.265Z,9.83
2019-02-02T15:57:38.725Z,9.20
2019-02-02T16:01:42.177Z,9.20
2019-02-02T16:05:45.637Z,8.90
2019-02-02T16:09:49.091Z,9.03
2019-02-02T16:13:52.555Z,9.03
2019-02-02T16:17:56.011Z,9.47
2019-02-02T16:21:59.461Z,9.20
2019-02-02T16:26:02.928Z,10.17
2019-02-02T16:30:06.404Z,10.83
2019-02-02T16:34:09.874Z,13.37
2019-02-02T16:38:14.404Z,14.87
2019-02-02T16:42:18.934Z,15.73
2019-02-02T16:46:22.395Z,16.03
2019-02-02T16:50:25.860Z,14.47
2019-02-02T16:54:29.331Z,13.33
2019-02-02T16:58:32.796Z,21.40
2019-02-02T17:02:36.247Z,21.13
2019-02-02T17:06:39.718Z,19.27
2019-02-02T17:10:43.182Z,19.87
2019-02-02T17:14:46.651Z,18.80
2019-02-02T17:18:50.104Z,16.83
2019-02-02T17:22:53.574Z,14.43
2019-02-02T17:26:57.035Z,14.47
2019-02-02T17:31:00.497Z,17.27
2019-02-02T17:35:04.942Z,15.20
2019-02-02T17:39:08.389Z,14.30
2019-02-02T17:43:12.024Z,14.70
2019-02-02T17:47:15.493Z,13.20
2019-02-02T17:51:19.059Z,11.13
2019-02-02T17:55:22.501Z,10.00
2019-02-02T17:59:26.085Z,10.43
2019-02-02T18:03:30.617Z,11.13
2019-02-02T18:07:34.084Z,11.23
2019-02-02T18:11:37.551Z,12.70
2019-02-02T18:15:41.019Z,12.40
2019-02-02T18:19:44.471Z,12.67
2019-02-02T18:23:47.938Z,11.70
2019-02-02T18:27:51.410Z,13.40
2019-02-02T18:31:54.889Z,16.73
2019-02-02T18:35:58.382Z,15.67
2019-02-02T18:40:01.837Z,18.27
2019-02-02T18:44:05.320Z,17.73
2019-02-02T18:48:08.798Z,17.23
2019-02-02T18:52:12.264Z,18.50
2019-02-02T18:56:15.731Z,20.87
2019-02-02T19:00:19.186Z,21.37
2019-02-02T19:04:22.648Z,23.53
2019-02-02T19:08:26.115Z,24.63
2019-02-02T19:12:29.600Z,22.80
2019-02-02T19:16:33.077Z,24.30
2019-02-02T19:20:36.519Z,23.10
2019-02-02T19:24:39.987Z,27.00
2019-02-02T19:28:43.457Z,25.77
2019-02-02T19:32:46.950Z,26.60
2019-02-02T19:36:50.412Z,25.53
2019-02-02T19:40:53.876Z,26.57
2019-02-02T19:44:57.345Z,24.47
2019-02-02T19:49:00.816Z,25.30
2019-02-02T19:53:04.329Z,24.77
2019-02-02T19:57:07.841Z,25.70
2019-02-02T20:01:11.296Z,23.87
2019-02-02T20:05:14.768Z,25.20
2019-02-02T20:09:18.256Z,24.53
2019-02-02T20:13:21.726Z,25.70
2019-02-02T20:17:25.190Z,24.63
2019-02-02T20:21:28.713Z,25.10
2019-02-02T20:25:32.182Z,24.87
2019-02-02T20:29:35.649Z,24.33
2019-02-02T20:33:39.121Z,23.33
2019-02-02T20:37:42.586Z,22.87
2019-02-02T20:41:46.041Z,23.73
2019-02-02T20:45:50.317Z,22.77
2019-02-02T20:49:53.816Z,23.33
2019-02-02T20:53:57.260Z,21.43
2019-02-02T20:58:00.738Z,24.80
2019-02-02T21:02:04.190Z,25.10
2019-02-02T21:06:07.676Z,23.77
2019-02-02T21:10:11.129Z,22.77
2019-02-02T21:14:14.773Z,21.43
2019-02-02T21:18:18.231Z,19.00
2019-02-02T21:22:21.696Z,20.10
2019-02-02T21:26:25.157Z,21.40
2019-02-02T21:30:28.643Z,20.07
2019-02-02T21:34:32.091Z,19.27
2019-02-02T21:38:35.554Z,20.47
2019-02-02T21:42:39.400Z,19.50
2019-02-02T21:46:42.869Z,20.73
2019-02-02T21:50:46.333Z,18.97
2019-02-02T21:54:49.797Z,19.80
2019-02-02T21:58:53.257Z,19.33
2019-02-02T22:02:56.720Z,19.53
2019-02-02T22:07:00.192Z,18.43
2019-02-02T22:11:03.942Z,16.60
2019-02-02T22:15:07.410Z,18.30
2019-02-02T22:19:10.871Z,18.17
2019-02-02T22:23:14.361Z,17.77
2019-02-02T22:27:17.825Z,18.37
2019-02-02T22:31:21.289Z,16.00
2019-02-02T22:35:24.759Z,15.93
2019-02-02T22:39:28.211Z,17.03
2019-02-02T22:43:31.684Z,15.83
2019-02-02T22:47:35.139Z,15.93
2019-02-02T22:51:38.611Z,15.53
2019-02-02T22:55:42.091Z,14.97
2019-02-02T22:59:47.797Z,14.23
2019-02-02T23:03:50.698Z,14.37
2019-02-02T23:07:54.160Z,13.57
2019-02-02T23:11:57.625Z,13.03
2019-02-02T23:16:01.093Z,12.27
2019-02-02T23:20:04.545Z,10.90
2019-02-02T23:24:08.019Z,11.23
2019-02-02T23:28:11.489Z,12.20
2019-02-02T23:32:14.961Z,36.20
2019-02-02T23:36:18.429Z,11.73
2019-02-02T23:40:21.877Z,11.00
2019-02-02T23:44:25.382Z,11.57
2019-02-02T23:48:28.823Z,11.93
2019-02-02T23:52:32.291Z,11.10
2019-02-02T23:56:35.754Z,11.23
